Terminal Aerodrome Forecast
Issued by NWS Jackson, KY

Home | Current Version | Previous Version | Text Only | Print | Product List | Glossary On
Versions: 1 2 3 4 5 6 7 8 9 10 11 12 13 14 15 16 17 18
337
FTUS43 KJKL 231120
TAFJKL
TAF
KJKL 231120Z 2312/2412 00000KT P6SM OVC150
     FM232000 12004KT P6SM VCSH BKN045
     FM240000 00000KT P6SM BKN040
     FM240900 00000KT P6SM -SHRA OVC030=

USA.gov is the U.S. government's official web portal to all federal, state and local government web resources and services.